Tullytown, Pennsylvania
Current Conditions -  °F | °C
As of 4:54 AM on Sunday 26 Oct 2014 (Local Time) from KPNE Reporting Station
Clear Clear  
Wind Chill: 61°   Ceiling: Unl
Heat Index: 61°   Visibility: 10mi
Dew Point: 41°   Wind: 10mph
Humidity: 48%   Direction: 300°WNW
Pressure: 29.63"   Gusts: NA
Location:  40.1156°N, 74.8582°W
Report Text: KPNE 260854Z 30009KT 10SM CLR 16/05 A2963 RMK AO2 SLP032 T01610050 53006
Loading
Personal Weather Stations






























Interactive Weather Map
Tropical Storm Tracking
New forecast layout! Learn more

10-Day Weather Forecast

Advertisements
Track Severe Weather on mobile